sensor_id;sensor_type;location;lat;lon;timestamp;pressure;altitude;pressure_sealevel;temperature;humidity
1926;BME280;964;42.606;23.588;2024-02-21T00:00:52;95134.81;;;14.20;48.77
1926;BME280;964;42.606;23.588;2024-02-21T00:03:19;95144.72;;;13.78;49.96
1926;BME280;964;42.606;23.588;2024-02-21T00:05:46;95138.66;;;14.00;49.68
1926;BME280;964;42.606;23.588;2024-02-21T00:08:14;95137.28;;;14.10;49.21
1926;BME280;964;42.606;23.588;2024-02-21T00:10:41;95130.31;;;14.51;48.25
1926;BME280;964;42.606;23.588;2024-02-21T00:13:08;95134.97;;;14.08;48.85
1926;BME280;964;42.606;23.588;2024-02-21T00:15:34;95137.16;;;14.48;48.02
1926;BME280;964;42.606;23.588;2024-02-21T00:18:02;95130.22;;;14.70;47.46
1926;BME280;964;42.606;23.588;2024-02-21T00:20:29;95123.09;;;14.78;47.23
1926;BME280;964;42.606;23.588;2024-02-21T00:22:56;95123.03;;;14.48;47.96
1926;BME280;964;42.606;23.588;2024-02-21T00:25:24;95119.59;;;14.47;47.86
1926;BME280;964;42.606;23.588;2024-02-21T00:27:51;95126.91;;;14.28;48.20
1926;BME280;964;42.606;23.588;2024-02-21T00:30:19;95120.81;;;14.27;48.01
1926;BME280;964;42.606;23.588;2024-02-21T00:32:46;95128.16;;;14.34;47.98
1926;BME280;964;42.606;23.588;2024-02-21T00:35:13;95128.75;;;14.23;48.19
1926;BME280;964;42.606;23.588;2024-02-21T00:37:40;95122.81;;;14.34;48.18
1926;BME280;964;42.606;23.588;2024-02-21T00:40:08;95126.66;;;13.87;49.10
1926;BME280;964;42.606;23.588;2024-02-21T00:42:36;95121.22;;;14.06;48.53
1926;BME280;964;42.606;23.588;2024-02-21T00:45:03;95125.16;;;14.12;48.99
1926;BME280;964;42.606;23.588;2024-02-21T00:47:30;95126.75;;;14.17;48.71
1926;BME280;964;42.606;23.588;2024-02-21T00:49:57;95127.50;;;14.17;48.63
1926;BME280;964;42.606;23.588;2024-02-21T00:52:23;95128.72;;;13.97;49.49
1926;BME280;964;42.606;23.588;2024-02-21T00:54:50;95119.41;;;14.10;49.02
1926;BME280;964;42.606;23.588;2024-02-21T00:57:17;95124.63;;;13.81;50.19
1926;BME280;964;42.606;23.588;2024-02-21T00:59:45;95122.50;;;13.90;49.94
1926;BME280;964;42.606;23.588;2024-02-21T01:02:12;95126.16;;;13.82;49.77
1926;BME280;964;42.606;23.588;2024-02-21T01:04:39;95118.34;;;13.69;50.21
1926;BME280;964;42.606;23.588;2024-02-21T01:07:05;95119.75;;;13.86;49.91
1926;BME280;964;42.606;23.588;2024-02-21T01:09:32;95113.88;;;13.77;49.39
1926;BME280;964;42.606;23.588;2024-02-21T01:11:59;95103.03;;;14.61;47.55
1926;BME280;964;42.606;23.588;2024-02-21T01:14:26;95107.53;;;14.31;48.66
1926;BME280;964;42.606;23.588;2024-02-21T01:16:54;95108.81;;;13.91;49.01
1926;BME280;964;42.606;23.588;2024-02-21T01:19:21;95099.06;;;14.48;47.81
1926;BME280;964;42.606;23.588;2024-02-21T01:21:48;95094.41;;;13.96;48.80
1926;BME280;964;42.606;23.588;2024-02-21T01:24:15;95096.75;;;13.97;48.97
1926;BME280;964;42.606;23.588;2024-02-21T01:26:41;95091.69;;;13.92;48.77
1926;BME280;964;42.606;23.588;2024-02-21T01:29:08;95094.41;;;13.96;49.13
1926;BME280;964;42.606;23.588;2024-02-21T01:31:35;95093.13;;;13.86;48.66
1926;BME280;964;42.606;23.588;2024-02-21T01:34:03;95086.78;;;14.43;47.76
1926;BME280;964;42.606;23.588;2024-02-21T01:36:29;95088.47;;;14.55;47.79
1926;BME280;964;42.606;23.588;2024-02-21T01:38:56;95081.34;;;14.62;47.59
1926;BME280;964;42.606;23.588;2024-02-21T01:41:23;95077.72;;;14.48;47.78
1926;BME280;964;42.606;23.588;2024-02-21T01:43:50;95077.56;;;14.63;47.16
1926;BME280;964;42.606;23.588;2024-02-21T01:46:17;95079.63;;;14.24;47.95
1926;BME280;964;42.606;23.588;2024-02-21T01:48:45;95080.81;;;14.50;47.39
1926;BME280;964;42.606;23.588;2024-02-21T01:51:14;95080.16;;;14.07;47.88
1926;BME280;964;42.606;23.588;2024-02-21T01:53:43;95070.16;;;14.01;48.08
1926;BME280;964;42.606;23.588;2024-02-21T01:56:12;95072.78;;;14.23;47.53
1926;BME280;964;42.606;23.588;2024-02-21T01:58:40;95065.50;;;14.20;47.95
1926;BME280;964;42.606;23.588;2024-02-21T02:01:09;95072.16;;;14.34;47.75
1926;BME280;964;42.606;23.588;2024-02-21T02:03:36;95080.09;;;14.04;48.44
1926;BME280;964;42.606;23.588;2024-02-21T02:06:05;95083.28;;;14.13;47.89
1926;BME280;964;42.606;23.588;2024-02-21T02:08:33;95071.66;;;14.51;46.95
1926;BME280;964;42.606;23.588;2024-02-21T02:11:00;95078.34;;;14.38;47.33
1926;BME280;964;42.606;23.588;2024-02-21T02:13:27;95077.19;;;14.65;46.94
1926;BME280;964;42.606;23.588;2024-02-21T02:15:54;95073.84;;;14.19;47.32
1926;BME280;964;42.606;23.588;2024-02-21T02:18:21;95076.72;;;14.33;47.22
1926;BME280;964;42.606;23.588;2024-02-21T02:20:48;95082.41;;;14.05;48.17
1926;BME280;964;42.606;23.588;2024-02-21T02:23:21;95080.59;;;14.36;47.53
1926;BME280;964;42.606;23.588;2024-02-21T02:25:48;95080.03;;;14.00;48.08
1926;BME280;964;42.606;23.588;2024-02-21T02:28:17;95072.28;;;14.97;46.49
1926;BME280;964;42.606;23.588;2024-02-21T02:30:45;95075.84;;;14.78;46.28
1926;BME280;964;42.606;23.588;2024-02-21T02:33:12;95068.09;;;14.99;46.11
1926;BME280;964;42.606;23.588;2024-02-21T02:38:43;95072.75;;;14.76;46.24
1926;BME280;964;42.606;23.588;2024-02-21T02:41:26;95064.75;;;14.76;46.43
1926;BME280;964;42.606;23.588;2024-02-21T02:43:53;95063.06;;;15.28;45.42
1926;BME280;964;42.606;23.588;2024-02-21T02:46:20;95068.66;;;15.15;45.38
1926;BME280;964;42.606;23.588;2024-02-21T02:48:47;95057.34;;;15.26;44.87
1926;BME280;964;42.606;23.588;2024-02-21T02:51:13;95052.72;;;15.23;45.25
1926;BME280;964;42.606;23.588;2024-02-21T02:53:40;95060.47;;;15.35;44.86
1926;BME280;964;42.606;23.588;2024-02-21T02:56:14;95059.94;;;15.52;45.00
1926;BME280;964;42.606;23.588;2024-02-21T02:58:40;95057.53;;;15.47;44.91
1926;BME280;964;42.606;23.588;2024-02-21T03:01:07;95054.50;;;15.48;44.45
1926;BME280;964;42.606;23.588;2024-02-21T03:03:34;95063.41;;;15.23;45.13
1926;BME280;964;42.606;23.588;2024-02-21T03:06:01;95050.94;;;15.74;44.49
1926;BME280;964;42.606;23.588;2024-02-21T03:08:28;95051.09;;;15.88;43.97
1926;BME280;964;42.606;23.588;2024-02-21T03:10:54;95059.53;;;15.97;43.73
1926;BME280;964;42.606;23.588;2024-02-21T03:13:22;95056.34;;;15.81;44.09
1926;BME280;964;42.606;23.588;2024-02-21T03:15:49;95065.28;;;15.99;44.29
1926;BME280;964;42.606;23.588;2024-02-21T03:18:16;95060.22;;;15.87;44.47
1926;BME280;964;42.606;23.588;2024-02-21T03:20:43;95068.78;;;16.10;43.78
1926;BME280;964;42.606;23.588;2024-02-21T03:23:09;95075.47;;;15.83;43.83
1926;BME280;964;42.606;23.588;2024-02-21T03:25:36;95072.00;;;15.79;44.44
1926;BME280;964;42.606;23.588;2024-02-21T03:28:03;95066.97;;;15.74;43.53
1926;BME280;964;42.606;23.588;2024-02-21T03:30:31;95077.97;;;15.29;44.59
1926;BME280;964;42.606;23.588;2024-02-21T03:32:59;95082.63;;;15.39;44.83
1926;BME280;964;42.606;23.588;2024-02-21T03:35:26;95073.66;;;15.94;44.41
1926;BME280;964;42.606;23.588;2024-02-21T03:37:53;95088.28;;;15.67;43.91
1926;BME280;964;42.606;23.588;2024-02-21T03:40:20;95073.38;;;16.06;44.05
1926;BME280;964;42.606;23.588;2024-02-21T03:42:47;95079.06;;;16.01;42.89
1926;BME280;964;42.606;23.588;2024-02-21T03:45:14;95073.25;;;15.92;43.25
1926;BME280;964;42.606;23.588;2024-02-21T03:47:42;95073.78;;;16.12;42.82
1926;BME280;964;42.606;23.588;2024-02-21T03:50:09;95074.72;;;15.86;43.73
1926;BME280;964;42.606;23.588;2024-02-21T03:52:36;95077.59;;;15.67;43.96
1926;BME280;964;42.606;23.588;2024-02-21T03:55:03;95081.59;;;15.47;44.59
1926;BME280;964;42.606;23.588;2024-02-21T03:57:30;95086.13;;;15.43;44.73
1926;BME280;964;42.606;23.588;2024-02-21T03:59:57;95087.00;;;15.20;45.06
1926;BME280;964;42.606;23.588;2024-02-21T04:02:24;95087.88;;;15.28;44.84
1926;BME280;964;42.606;23.588;2024-02-21T04:04:52;95089.03;;;15.64;43.89
1926;BME280;964;42.606;23.588;2024-02-21T04:07:19;95088.56;;;15.55;43.74
1926;BME280;964;42.606;23.588;2024-02-21T04:09:45;95093.31;;;15.39;44.55
1926;BME280;964;42.606;23.588;2024-02-21T04:12:12;95088.06;;;15.46;44.45
1926;BME280;964;42.606;23.588;2024-02-21T04:14:39;95087.91;;;15.32;44.73
1926;BME280;964;42.606;23.588;2024-02-21T04:17:06;95086.88;;;15.77;44.66
1926;BME280;964;42.606;23.588;2024-02-21T04:19:32;95089.69;;;15.54;44.37
1926;BME280;964;42.606;23.588;2024-02-21T04:22:01;95092.69;;;15.49;44.67
1926;BME280;964;42.606;23.588;2024-02-21T04:24:28;95090.50;;;15.58;43.99
1926;BME280;964;42.606;23.588;2024-02-21T04:26:55;95084.28;;;15.87;43.33
1926;BME280;964;42.606;23.588;2024-02-21T04:29:22;95078.56;;;15.92;43.68
1926;BME280;964;42.606;23.588;2024-02-21T04:31:49;95082.03;;;15.93;43.05
1926;BME280;964;42.606;23.588;2024-02-21T04:34:15;95094.38;;;15.64;43.48
1926;BME280;964;42.606;23.588;2024-02-21T04:36:42;95088.34;;;15.74;43.94
1926;BME280;964;42.606;23.588;2024-02-21T04:39:10;95090.50;;;15.58;43.54
1926;BME280;964;42.606;23.588;2024-02-21T04:41:38;95080.34;;;15.37;44.11
1926;BME280;964;42.606;23.588;2024-02-21T04:44:05;95089.59;;;15.13;44.66
1926;BME280;964;42.606;23.588;2024-02-21T04:46:31;95099.00;;;15.00;45.38
1926;BME280;964;42.606;23.588;2024-02-21T04:48:58;95097.50;;;15.03;45.27
1926;BME280;964;42.606;23.588;2024-02-21T04:51:25;95092.31;;;15.17;45.05
1926;BME280;964;42.606;23.588;2024-02-21T04:53:51;95093.47;;;15.19;44.47
1926;BME280;964;42.606;23.588;2024-02-21T04:56:20;95095.34;;;15.49;43.94
1926;BME280;964;42.606;23.588;2024-02-21T04:58:46;95090.53;;;15.61;43.57
1926;BME280;964;42.606;23.588;2024-02-21T05:01:13;95093.56;;;15.60;43.60
1926;BME280;964;42.606;23.588;2024-02-21T05:03:40;95095.91;;;15.65;43.71
1926;BME280;964;42.606;23.588;2024-02-21T05:06:06;95088.41;;;15.81;42.13
1926;BME280;964;42.606;23.588;2024-02-21T05:08:33;95092.94;;;15.03;44.80
1926;BME280;964;42.606;23.588;2024-02-21T05:11:00;95096.19;;;15.23;43.39
1926;BME280;964;42.606;23.588;2024-02-21T05:13:28;95094.44;;;15.01;43.60
1926;BME280;964;42.606;23.588;2024-02-21T05:15:55;95081.44;;;14.99;43.46
1926;BME280;964;42.606;23.588;2024-02-21T05:18:22;95081.56;;;15.10;43.51
1926;BME280;964;42.606;23.588;2024-02-21T05:20:48;95097.66;;;15.17;43.24
1926;BME280;964;42.606;23.588;2024-02-21T05:23:15;95096.22;;;15.27;43.35
1926;BME280;964;42.606;23.588;2024-02-21T05:25:42;95101.91;;;15.21;43.59
1926;BME280;964;42.606;23.588;2024-02-21T05:28:09;95096.31;;;15.34;43.67
1926;BME280;964;42.606;23.588;2024-02-21T05:30:38;95099.84;;;15.45;43.11
1926;BME280;964;42.606;23.588;2024-02-21T05:33:07;95103.97;;;15.35;43.68
1926;BME280;964;42.606;23.588;2024-02-21T05:35:35;95110.97;;;15.47;44.14
1926;BME280;964;42.606;23.588;2024-02-21T05:38:02;95104.41;;;15.41;43.45
1926;BME280;964;42.606;23.588;2024-02-21T05:40:32;95112.50;;;15.48;44.21
1926;BME280;964;42.606;23.588;2024-02-21T05:42:58;95108.22;;;15.06;44.70
1926;BME280;964;42.606;23.588;2024-02-21T05:45:25;95111.13;;;15.28;44.82
1926;BME280;964;42.606;23.588;2024-02-21T05:47:53;95108.25;;;15.43;44.78
1926;BME280;964;42.606;23.588;2024-02-21T05:50:20;95119.63;;;15.03;45.17
1926;BME280;964;42.606;23.588;2024-02-21T05:52:50;95126.00;;;15.29;45.36
1926;BME280;964;42.606;23.588;2024-02-21T05:55:18;95122.84;;;15.19;45.01
1926;BME280;964;42.606;23.588;2024-02-21T05:57:44;95124.13;;;14.99;45.54
1926;BME280;964;42.606;23.588;2024-02-21T06:00:12;95114.94;;;15.60;45.01
1926;BME280;964;42.606;23.588;2024-02-21T06:02:41;95128.97;;;15.90;44.23
1926;BME280;964;42.606;23.588;2024-02-21T06:05:09;95119.19;;;16.08;43.47
1926;BME280;964;42.606;23.588;2024-02-21T06:07:36;95127.25;;;16.12;43.79
1926;BME280;964;42.606;23.588;2024-02-21T06:10:03;95123.75;;;16.04;44.23
1926;BME280;964;42.606;23.588;2024-02-21T06:12:30;95127.75;;;16.25;44.02
1926;BME280;964;42.606;23.588;2024-02-21T06:14:57;95126.53;;;16.18;43.64
1926;BME280;964;42.606;23.588;2024-02-21T06:17:23;95139.72;;;16.41;42.89
1926;BME280;964;42.606;23.588;2024-02-21T06:19:50;95138.50;;;16.32;43.29
1926;BME280;964;42.606;23.588;2024-02-21T06:22:18;95141.94;;;15.88;44.02
1926;BME280;964;42.606;23.588;2024-02-21T06:24:45;95141.84;;;15.81;44.14
1926;BME280;964;42.606;23.588;2024-02-21T06:27:12;95150.34;;;15.90;44.03
1926;BME280;964;42.606;23.588;2024-02-21T06:29:40;95154.97;;;15.93;43.71
1926;BME280;964;42.606;23.588;2024-02-21T06:32:07;95158.63;;;15.78;44.46
1926;BME280;964;42.606;23.588;2024-02-21T06:34:33;95160.56;;;15.81;44.80
1926;BME280;964;42.606;23.588;2024-02-21T06:37:00;95152.13;;;16.19;44.18
1926;BME280;964;42.606;23.588;2024-02-21T06:39:29;95163.53;;;16.09;43.55
1926;BME280;964;42.606;23.588;2024-02-21T06:41:56;95156.56;;;16.01;43.92
1926;BME280;964;42.606;23.588;2024-02-21T06:44:22;95158.50;;;16.52;43.83
1926;BME280;964;42.606;23.588;2024-02-21T06:46:49;95150.25;;;16.71;42.50
1926;BME280;964;42.606;23.588;2024-02-21T06:49:16;95151.19;;;16.96;43.03
1926;BME280;964;42.606;23.588;2024-02-21T06:51:43;95152.75;;;17.01;42.82
1926;BME280;964;42.606;23.588;2024-02-21T06:54:09;95157.44;;;17.22;41.68
1926;BME280;964;42.606;23.588;2024-02-21T06:56:40;95151.22;;;17.03;42.16
1926;BME280;964;42.606;23.588;2024-02-21T06:59:06;95157.44;;;17.22;41.01
1926;BME280;964;42.606;23.588;2024-02-21T07:01:33;95166.69;;;17.42;40.81
1926;BME280;964;42.606;23.588;2024-02-21T07:04:00;95170.81;;;16.56;43.20
1926;BME280;964;42.606;23.588;2024-02-21T07:06:27;95175.72;;;17.12;41.65
1926;BME280;964;42.606;23.588;2024-02-21T07:08:54;95170.41;;;16.58;43.27
1926;BME280;964;42.606;23.588;2024-02-21T07:11:22;95176.47;;;16.55;42.80
1926;BME280;964;42.606;23.588;2024-02-21T07:13:51;95179.69;;;16.24;43.38
1926;BME280;964;42.606;23.588;2024-02-21T07:16:18;95179.63;;;16.16;43.23
1926;BME280;964;42.606;23.588;2024-02-21T07:18:45;95182.72;;;16.22;44.25
1926;BME280;964;42.606;23.588;2024-02-21T07:21:12;95181.06;;;16.10;44.37
1926;BME280;964;42.606;23.588;2024-02-21T07:23:40;95180.66;;;16.49;43.04
1926;BME280;964;42.606;23.588;2024-02-21T07:26:07;95181.03;;;16.51;43.44
1926;BME280;964;42.606;23.588;2024-02-21T07:28:34;95184.63;;;16.65;43.35
1926;BME280;964;42.606;23.588;2024-02-21T07:31:02;95176.94;;;17.19;41.65
1926;BME280;964;42.606;23.588;2024-02-21T07:33:29;95164.53;;;17.72;40.84
1926;BME280;964;42.606;23.588;2024-02-21T07:35:56;95165.34;;;18.04;40.27
1926;BME280;964;42.606;23.588;2024-02-21T07:38:23;95163.75;;;17.75;41.87
1926;BME280;964;42.606;23.588;2024-02-21T07:40:49;95163.13;;;18.56;39.11
1926;BME280;964;42.606;23.588;2024-02-21T07:43:16;95166.91;;;18.23;39.73
1926;BME280;964;42.606;23.588;2024-02-21T07:45:43;95159.28;;;18.46;39.19
1926;BME280;964;42.606;23.588;2024-02-21T07:48:11;95167.69;;;18.84;38.69
1926;BME280;964;42.606;23.588;2024-02-21T07:50:38;95160.78;;;18.93;38.53
1926;BME280;964;42.606;23.588;2024-02-21T07:53:04;95171.16;;;18.52;39.26
1926;BME280;964;42.606;23.588;2024-02-21T07:55:32;95169.22;;;18.42;39.58
1926;BME280;964;42.606;23.588;2024-02-21T07:57:58;95178.31;;;17.74;40.64
1926;BME280;964;42.606;23.588;2024-02-21T08:00:25;95174.91;;;17.84;40.83
1926;BME280;964;42.606;23.588;2024-02-21T08:02:52;95177.53;;;17.67;40.48
1926;BME280;964;42.606;23.588;2024-02-21T08:05:20;95173.03;;;18.02;39.49
1926;BME280;964;42.606;23.588;2024-02-21T08:07:48;95171.41;;;17.62;40.84
1926;BME280;964;42.606;23.588;2024-02-21T08:10:15;95168.44;;;17.99;41.08
1926;BME280;964;42.606;23.588;2024-02-21T08:12:42;95168.47;;;18.59;39.39
1926;BME280;964;42.606;23.588;2024-02-21T08:15:09;95160.78;;;18.93;38.36
1926;BME280;964;42.606;23.588;2024-02-21T08:17:37;95154.56;;;19.18;37.74
1926;BME280;964;42.606;23.588;2024-02-21T08:20:05;95163.09;;;18.49;38.93
1926;BME280;964;42.606;23.588;2024-02-21T08:22:33;95161.81;;;20.11;37.20
1926;BME280;964;42.606;23.588;2024-02-21T08:25:00;95151.34;;;21.50;34.08
1926;BME280;964;42.606;23.588;2024-02-21T08:27:27;95136.31;;;22.60;33.08
1926;BME280;964;42.606;23.588;2024-02-21T08:29:53;95139.69;;;22.67;32.50
1926;BME280;964;42.606;23.588;2024-02-21T08:32:20;95142.31;;;21.94;33.44
1926;BME280;964;42.606;23.588;2024-02-21T08:34:47;95141.53;;;22.47;32.51
1926;BME280;964;42.606;23.588;2024-02-21T08:37:14;95141.09;;;22.75;31.75
1926;BME280;964;42.606;23.588;2024-02-21T08:39:42;95138.19;;;22.86;31.71
1926;BME280;964;42.606;23.588;2024-02-21T08:42:09;95147.31;;;20.97;34.87
1926;BME280;964;42.606;23.588;2024-02-21T08:44:35;95149.38;;;21.24;34.45
1926;BME280;964;42.606;23.588;2024-02-21T08:47:06;95148.72;;;21.43;34.16
1926;BME280;964;42.606;23.588;2024-02-21T08:49:34;95148.63;;;21.20;34.52
1926;BME280;964;42.606;23.588;2024-02-21T08:52:01;95145.56;;;21.18;34.51
1926;BME280;964;42.606;23.588;2024-02-21T08:54:28;95144.41;;;22.10;32.91
1926;BME280;964;42.606;23.588;2024-02-21T08:56:56;95148.91;;;21.93;33.65
1926;BME280;964;42.606;23.588;2024-02-21T08:59:23;95134.06;;;23.21;31.95
1926;BME280;964;42.606;23.588;2024-02-21T09:01:51;95116.66;;;25.39;29.14
1926;BME280;964;42.606;23.588;2024-02-21T09:04:18;95118.09;;;27.17;26.56
1926;BME280;964;42.606;23.588;2024-02-21T09:06:45;95115.03;;;26.21;28.13
1926;BME280;964;42.606;23.588;2024-02-21T09:09:12;95128.00;;;24.28;29.47
1926;BME280;964;42.606;23.588;2024-02-21T09:11:39;95142.44;;;22.37;32.56
1926;BME280;964;42.606;23.588;2024-02-21T09:14:07;95147.41;;;22.15;33.01
1926;BME280;964;42.606;23.588;2024-02-21T09:16:34;95136.88;;;21.97;33.47
1926;BME280;964;42.606;23.588;2024-02-21T09:19:01;95144.63;;;21.31;34.49
1926;BME280;964;42.606;23.588;2024-02-21T09:21:28;95139.63;;;22.21;33.34
1926;BME280;964;42.606;23.588;2024-02-21T09:23:54;95146.88;;;21.70;33.99
1926;BME280;964;42.606;23.588;2024-02-21T09:26:21;95151.03;;;21.11;34.51
1926;BME280;964;42.606;23.588;2024-02-21T09:28:48;95148.84;;;20.95;34.96
1926;BME280;964;42.606;23.588;2024-02-21T09:31:16;95142.78;;;21.59;34.83
1926;BME280;964;42.606;23.588;2024-02-21T09:33:43;95140.31;;;21.68;34.80
1926;BME280;964;42.606;23.588;2024-02-21T09:36:10;95150.72;;;21.01;35.95
1926;BME280;964;42.606;23.588;2024-02-21T09:38:36;95142.00;;;21.88;34.44
1926;BME280;964;42.606;23.588;2024-02-21T09:41:15;95152.97;;;22.05;33.86
1926;BME280;964;42.606;23.588;2024-02-21T09:43:43;95146.56;;;22.22;33.16
1926;BME280;964;42.606;23.588;2024-02-21T09:46:13;95140.63;;;22.30;33.00
1926;BME280;964;42.606;23.588;2024-02-21T09:48:56;95146.41;;;21.08;33.95
1926;BME280;964;42.606;23.588;2024-02-21T09:51:27;95152.84;;;20.83;34.40
1926;BME280;964;42.606;23.588;2024-02-21T09:53:56;95143.59;;;20.40;35.14
1926;BME280;964;42.606;23.588;2024-02-21T09:56:24;95142.13;;;20.25;35.41
1926;BME280;964;42.606;23.588;2024-02-21T09:58:51;95151.97;;;20.49;34.48
1926;BME280;964;42.606;23.588;2024-02-21T10:01:17;95150.03;;;20.49;34.38
1926;BME280;964;42.606;23.588;2024-02-21T10:03:46;95144.75;;;20.39;34.73
1926;BME280;964;42.606;23.588;2024-02-21T10:06:13;95140.38;;;20.96;33.55
1926;BME280;964;42.606;23.588;2024-02-21T10:08:40;95137.25;;;21.01;33.19
1926;BME280;964;42.606;23.588;2024-02-21T10:11:06;95137.59;;;21.41;32.88
1926;BME280;964;42.606;23.588;2024-02-21T10:13:35;95145.16;;;19.72;35.33
1926;BME280;964;42.606;23.588;2024-02-21T10:16:04;95142.97;;;19.35;35.24
1926;BME280;964;42.606;23.588;2024-02-21T10:18:31;95140.75;;;19.23;36.06
1926;BME280;964;42.606;23.588;2024-02-21T10:21:04;95138.50;;;19.00;35.12
1926;BME280;964;42.606;23.588;2024-02-21T10:23:41;95140.81;;;19.01;36.54
1926;BME280;964;42.606;23.588;2024-02-21T10:26:09;95137.72;;;19.06;36.30
1926;BME280;964;42.606;23.588;2024-02-21T10:28:36;95124.78;;;19.74;34.94
1926;BME280;964;42.606;23.588;2024-02-21T10:31:03;95120.63;;;20.21;34.04
1926;BME280;964;42.606;23.588;2024-02-21T10:33:30;95110.16;;;20.34;33.51
1926;BME280;964;42.606;23.588;2024-02-21T10:36:07;95114.28;;;19.10;34.59
1926;BME280;964;42.606;23.588;2024-02-21T10:38:36;95103.41;;;20.12;34.18
1926;BME280;964;42.606;23.588;2024-02-21T10:41:04;95084.56;;;22.84;31.05
1926;BME280;964;42.606;23.588;2024-02-21T10:43:38;95069.63;;;23.75;28.76
1926;BME280;964;42.606;23.588;2024-02-21T10:46:06;95083.88;;;22.11;30.63
1926;BME280;964;42.606;23.588;2024-02-21T10:48:41;95067.53;;;23.27;29.24
1926;BME280;964;42.606;23.588;2024-02-21T10:51:14;95090.13;;;21.47;31.24
1926;BME280;964;42.606;23.588;2024-02-21T10:53:45;95083.78;;;21.91;30.72
1926;BME280;964;42.606;23.588;2024-02-21T10:56:22;95069.25;;;20.90;31.41
1926;BME280;964;42.606;23.588;2024-02-21T10:58:49;95073.25;;;20.34;31.94
1926;BME280;964;42.606;23.588;2024-02-21T11:01:18;95066.13;;;20.14;32.53
1926;BME280;964;42.606;23.588;2024-02-21T11:03:46;95062.19;;;20.66;32.50
1926;BME280;964;42.606;23.588;2024-02-21T11:06:16;95041.50;;;23.33;29.24
1926;BME280;964;42.606;23.588;2024-02-21T11:08:44;95032.81;;;24.58;28.09
1926;BME280;964;42.606;23.588;2024-02-21T11:11:12;95037.84;;;24.44;28.25
1926;BME280;964;42.606;23.588;2024-02-21T11:13:43;95044.75;;;22.65;29.58
1926;BME280;964;42.606;23.588;2024-02-21T11:16:12;95037.94;;;24.08;28.77
1926;BME280;964;42.606;23.588;2024-02-21T11:18:39;95041.19;;;25.34;27.51
1926;BME280;964;42.606;23.588;2024-02-21T11:21:06;95032.25;;;25.62;25.89
1926;BME280;964;42.606;23.588;2024-02-21T11:23:36;95025.34;;;25.20;26.77
1926;BME280;964;42.606;23.588;2024-02-21T11:26:04;95029.97;;;25.07;26.19
1926;BME280;964;42.606;23.588;2024-02-21T11:28:32;95024.88;;;25.75;25.58
1926;BME280;964;42.606;23.588;2024-02-21T11:31:07;95032.34;;;23.82;26.72
1926;BME280;964;42.606;23.588;2024-02-21T11:33:34;95029.75;;;23.23;27.38
1926;BME280;964;42.606;23.588;2024-02-21T11:36:01;95026.56;;;23.64;27.95
1926;BME280;964;42.606;23.588;2024-02-21T11:38:29;95020.16;;;24.07;26.83
1926;BME280;964;42.606;23.588;2024-02-21T11:40:58;95003.13;;;26.01;25.53
1926;BME280;964;42.606;23.588;2024-02-21T11:43:24;95002.44;;;26.56;24.43
1926;BME280;964;42.606;23.588;2024-02-21T11:45:58;95000.88;;;24.95;25.64
1926;BME280;964;42.606;23.588;2024-02-21T11:48:25;95005.81;;;23.58;26.80
1926;BME280;964;42.606;23.588;2024-02-21T11:50:53;95011.91;;;22.47;28.57
1926;BME280;964;42.606;23.588;2024-02-21T11:53:21;95003.09;;;22.43;27.79
1926;BME280;964;42.606;23.588;2024-02-21T11:55:49;94997.19;;;22.91;27.48
1926;BME280;964;42.606;23.588;2024-02-21T11:58:17;95008.50;;;22.20;28.20
1926;BME280;964;42.606;23.588;2024-02-21T12:00:43;94999.13;;;22.28;28.24
1926;BME280;964;42.606;23.588;2024-02-21T12:03:10;94989.00;;;23.99;26.74
1926;BME280;964;42.606;23.588;2024-02-21T12:05:37;94981.91;;;24.78;26.02
1926;BME280;964;42.606;23.588;2024-02-21T12:08:04;94979.19;;;24.95;24.83
1926;BME280;964;42.606;23.588;2024-02-21T12:10:31;94972.66;;;24.92;25.03
1926;BME280;964;42.606;23.588;2024-02-21T12:13:05;94981.22;;;23.52;26.32
1926;BME280;964;42.606;23.588;2024-02-21T12:15:34;94973.34;;;23.06;27.18
1926;BME280;964;42.606;23.588;2024-02-21T12:18:01;94965.50;;;22.52;27.61
1926;BME280;964;42.606;23.588;2024-02-21T12:20:28;94971.44;;;23.03;27.72
1926;BME280;964;42.606;23.588;2024-02-21T12:22:56;94953.50;;;23.97;26.24
1926;BME280;964;42.606;23.588;2024-02-21T12:25:24;94956.41;;;24.34;26.09
1926;BME280;964;42.606;23.588;2024-02-21T12:27:51;94960.16;;;22.48;27.45
1926;BME280;964;42.606;23.588;2024-02-21T12:30:19;94974.81;;;21.01;29.81
1926;BME280;964;42.606;23.588;2024-02-21T12:32:47;94971.47;;;20.60;30.35
1926;BME280;964;42.606;23.588;2024-02-21T12:35:14;94977.34;;;20.10;31.17
1926;BME280;964;42.606;23.588;2024-02-21T12:37:42;94968.19;;;20.00;30.84
1926;BME280;964;42.606;23.588;2024-02-21T12:40:10;94967.66;;;20.57;30.15
1926;BME280;964;42.606;23.588;2024-02-21T12:42:38;94957.28;;;20.18;29.74
1926;BME280;964;42.606;23.588;2024-02-21T12:45:06;94963.22;;;20.02;30.39
1926;BME280;964;42.606;23.588;2024-02-21T12:47:33;94968.50;;;20.10;29.92
1926;BME280;964;42.606;23.588;2024-02-21T12:50:02;94959.03;;;19.50;30.59
1926;BME280;964;42.606;23.588;2024-02-21T12:52:32;94961.13;;;19.18;31.11
1926;BME280;964;42.606;23.588;2024-02-21T12:54:58;94970.59;;;18.67;32.38
1926;BME280;964;42.606;23.588;2024-02-21T12:57:25;94971.00;;;18.62;32.22
1926;BME280;964;42.606;23.588;2024-02-21T12:59:52;94963.69;;;18.70;32.50
1926;BME280;964;42.606;23.588;2024-02-21T13:02:19;94957.59;;;18.48;32.48
1926;BME280;964;42.606;23.588;2024-02-21T13:04:46;94963.31;;;18.71;32.69
1926;BME280;964;42.606;23.588;2024-02-21T13:07:14;94963.09;;;18.02;32.74
1926;BME280;964;42.606;23.588;2024-02-21T13:09:41;94964.66;;;17.96;33.85
1926;BME280;964;42.606;23.588;2024-02-21T13:12:08;94963.03;;;18.27;33.34
1926;BME280;964;42.606;23.588;2024-02-21T13:14:35;94957.69;;;18.27;34.00
1926;BME280;964;42.606;23.588;2024-02-21T13:17:04;94961.56;;;17.97;34.14
1926;BME280;964;42.606;23.588;2024-02-21T13:19:31;94960.06;;;17.82;34.14
1926;BME280;964;42.606;23.588;2024-02-21T13:21:58;94965.41;;;17.75;33.63
1926;BME280;964;42.606;23.588;2024-02-21T13:24:26;94957.00;;;17.66;33.94
1926;BME280;964;42.606;23.588;2024-02-21T13:26:53;94953.94;;;17.64;34.21